createdAt,value
2023-05-18T00:02:48.230Z,8.60
2023-05-18T00:07:48.019Z,8.63
2023-05-18T00:12:47.962Z,8.66
2023-05-18T00:17:47.917Z,8.69
2023-05-18T00:22:47.833Z,8.69
2023-05-18T00:27:47.762Z,8.67
2023-05-18T00:32:47.736Z,8.67
2023-05-18T00:37:47.633Z,8.69
2023-05-18T00:42:47.570Z,8.66
2023-05-18T00:47:47.544Z,8.67
2023-05-18T00:52:47.435Z,8.67
2023-05-18T00:57:47.376Z,8.63
2023-05-18T01:02:47.471Z,8.63
2023-05-18T01:07:47.242Z,8.60
2023-05-18T01:12:47.185Z,8.55
2023-05-18T01:17:47.117Z,8.53
2023-05-18T01:22:47.053Z,8.52
2023-05-18T01:27:46.982Z,8.51
2023-05-18T01:32:47.092Z,8.49
2023-05-18T01:37:46.850Z,8.46
2023-05-18T01:42:46.794Z,8.45
2023-05-18T01:47:46.761Z,8.44
2023-05-18T01:52:46.649Z,8.38
2023-05-18T01:57:46.591Z,8.37
2023-05-18T02:02:46.576Z,8.32
2023-05-18T02:07:46.454Z,8.35
2023-05-18T02:12:46.394Z,8.37
2023-05-18T02:17:46.380Z,8.38
2023-05-18T02:22:46.264Z,8.41
2023-05-18T02:27:46.186Z,8.42
2023-05-18T02:32:46.178Z,8.44
2023-05-18T02:37:46.046Z,8.41
2023-05-18T02:42:46.003Z,8.42
2023-05-18T02:47:46.055Z,8.41
2023-05-18T02:52:46.028Z,8.33
2023-05-18T02:57:46.041Z,8.33
2023-05-18T03:02:46.167Z,8.27
2023-05-18T03:07:46.059Z,8.25
2023-05-18T03:12:46.123Z,8.17
2023-05-18T03:17:46.062Z,8.14
2023-05-18T03:22:45.491Z,8.09
2023-05-18T03:27:45.396Z,8.09
2023-05-18T03:32:45.430Z,8.07
2023-05-18T03:37:45.309Z,8.08
2023-05-18T03:42:45.239Z,8.14
2023-05-18T03:47:45.175Z,8.23
2023-05-18T03:52:45.101Z,8.32
2023-05-18T03:57:45.033Z,8.45
2023-05-18T04:02:45.082Z,8.56
2023-05-18T04:07:44.900Z,8.71
2023-05-18T04:12:44.822Z,8.79
2023-05-18T04:17:44.821Z,8.84
2023-05-18T04:22:44.684Z,8.92
2023-05-18T04:27:44.643Z,9.02
2023-05-18T04:32:44.600Z,9.12
2023-05-18T04:37:44.511Z,9.24
2023-05-18T04:42:44.435Z,9.36
2023-05-18T04:47:44.400Z,9.47
2023-05-18T04:52:44.303Z,9.75
2023-05-18T04:57:44.249Z,10.10
2023-05-18T05:02:44.224Z,10.83
2023-05-18T05:07:44.116Z,12.24
2023-05-18T05:12:44.043Z,13.20
2023-05-18T05:17:44.109Z,14.14
2023-05-18T05:22:43.946Z,14.83
2023-05-18T05:27:43.847Z,15.21
2023-05-18T05:32:43.884Z,14.95
2023-05-18T05:37:43.707Z,15.34
2023-05-18T05:42:43.645Z,15.86
2023-05-18T05:47:43.622Z,16.38
2023-05-18T05:52:43.539Z,17.15
2023-05-18T05:57:43.456Z,17.12
2023-05-18T06:02:43.535Z,17.69
2023-05-18T06:07:43.411Z,18.44
2023-05-18T06:12:43.250Z,19.14
2023-05-18T06:17:43.209Z,19.18
2023-05-18T06:22:43.131Z,18.81
2023-05-18T06:27:43.063Z,18.47
2023-05-18T06:32:43.057Z,19.18
2023-05-18T06:37:44.743Z,18.62
2023-05-18T06:42:42.868Z,18.59
2023-05-18T06:47:42.854Z,18.62
2023-05-18T06:52:42.740Z,18.99
2023-05-18T06:57:42.670Z,16.71
2023-05-18T07:02:42.628Z,16.88
2023-05-18T07:07:42.589Z,18.52
2023-05-18T07:12:42.471Z,18.73
2023-05-18T07:17:42.471Z,19.63
2023-05-18T07:22:42.340Z,19.36
2023-05-18T07:27:42.269Z,20.00
2023-05-18T07:32:42.283Z,20.83
2023-05-18T07:37:42.147Z,19.96
2023-05-18T07:42:42.052Z,21.35
2023-05-18T07:47:42.146Z,21.46
2023-05-18T07:52:41.933Z,20.51
2023-05-18T07:57:41.940Z,21.83
2023-05-18T08:02:42.016Z,22.28
2023-05-18T08:07:41.741Z,21.10
2023-05-18T08:12:41.686Z,18.74
2023-05-18T08:17:41.732Z,19.13
2023-05-18T08:22:41.557Z,20.18
2023-05-18T08:27:41.484Z,19.95
2023-05-18T08:32:41.435Z,19.76
2023-05-18T08:37:41.351Z,18.89
2023-05-18T08:42:49.359Z,17.88
2023-05-18T08:47:41.484Z,18.30
2023-05-18T08:52:41.146Z,18.14
2023-05-18T08:57:41.097Z,19.66
2023-05-18T09:02:41.072Z,19.00
2023-05-18T09:07:40.971Z,18.95
2023-05-18T09:12:40.882Z,18.15
2023-05-18T09:17:40.865Z,18.24
2023-05-18T09:22:40.753Z,19.17
2023-05-18T09:27:40.700Z,19.44
2023-05-18T09:32:40.661Z,17.96
2023-05-18T09:37:40.564Z,18.90
2023-05-18T09:42:40.487Z,18.37
2023-05-18T09:47:40.467Z,19.30
2023-05-18T09:52:40.368Z,19.54
2023-05-18T09:57:40.295Z,20.32
2023-05-18T10:02:40.254Z,19.28
2023-05-18T10:07:40.171Z,19.17
2023-05-18T10:12:40.115Z,19.20
2023-05-18T10:17:40.201Z,20.25
2023-05-18T10:22:39.982Z,20.69
2023-05-18T10:27:40.017Z,21.43
2023-05-18T10:32:39.872Z,21.25
2023-05-18T10:37:39.790Z,21.54
2023-05-18T10:42:39.735Z,21.20
2023-05-18T10:47:39.867Z,20.46
2023-05-18T10:52:39.596Z,19.94
2023-05-18T10:57:39.543Z,18.81
2023-05-18T11:02:39.509Z,18.78
2023-05-18T11:07:39.416Z,17.99
2023-05-18T11:12:39.338Z,18.24
2023-05-18T11:17:39.322Z,18.44
2023-05-18T11:22:39.213Z,18.98
2023-05-18T11:27:39.137Z,19.51
2023-05-18T11:32:39.203Z,19.20
2023-05-18T11:37:39.036Z,17.93
2023-05-18T11:42:38.967Z,17.57
2023-05-18T11:47:39.081Z,18.00
2023-05-18T11:52:38.827Z,18.45
2023-05-18T11:57:38.755Z,18.33
2023-05-18T12:02:38.777Z,19.18
2023-05-18T12:07:38.644Z,19.00
2023-05-18T12:12:38.576Z,18.09
2023-05-18T12:17:38.585Z,18.25
2023-05-18T12:22:38.448Z,17.89
2023-05-18T12:27:38.394Z,18.56
2023-05-18T12:32:38.339Z,18.99
2023-05-18T12:42:38.187Z,18.78
2023-05-18T12:47:38.130Z,18.43
2023-05-18T12:52:38.071Z,18.47
2023-05-18T12:57:37.992Z,18.41
2023-05-18T13:02:38.214Z,18.34
2023-05-18T13:07:37.865Z,18.30
2023-05-18T13:12:37.817Z,17.69
2023-05-18T13:17:37.758Z,18.12
2023-05-18T13:22:37.688Z,18.10
2023-05-18T13:27:37.605Z,18.19
2023-05-18T13:32:37.571Z,18.18
2023-05-18T13:37:37.479Z,18.10
2023-05-18T13:42:37.413Z,17.57
2023-05-18T13:47:37.420Z,17.71
2023-05-18T13:52:37.284Z,17.42
2023-05-18T13:57:37.221Z,17.48
2023-05-18T14:02:37.199Z,17.63
2023-05-18T14:07:37.094Z,17.46
2023-05-18T14:12:37.047Z,17.62
2023-05-18T14:17:36.978Z,17.64
2023-05-18T14:22:36.909Z,17.34
2023-05-18T14:27:36.827Z,17.34
2023-05-18T14:32:36.865Z,17.51
2023-05-18T14:37:36.687Z,17.63
2023-05-18T14:42:36.645Z,17.88
2023-05-18T14:47:36.582Z,18.18
2023-05-18T14:52:36.499Z,18.24
2023-05-18T14:57:36.432Z,17.97
2023-05-18T15:02:36.498Z,17.39
2023-05-18T15:07:36.290Z,17.15
2023-05-18T15:12:36.232Z,16.82
2023-05-18T15:17:36.196Z,16.85
2023-05-18T15:22:36.107Z,16.85
2023-05-18T15:27:36.026Z,16.74
2023-05-18T15:32:36.000Z,16.60
2023-05-18T15:37:35.898Z,16.53
2023-05-18T15:42:35.835Z,16.59
2023-05-18T15:47:35.782Z,16.60
2023-05-18T15:52:35.714Z,16.73
2023-05-18T15:57:35.654Z,16.88
2023-05-18T16:02:35.621Z,16.90
2023-05-18T16:07:35.515Z,17.05
2023-05-18T16:12:35.461Z,16.96
2023-05-18T16:17:35.441Z,16.67
2023-05-18T16:22:35.329Z,16.67
2023-05-18T16:27:35.243Z,16.91
2023-05-18T16:32:35.264Z,17.15
2023-05-18T16:37:35.116Z,17.19
2023-05-18T16:42:35.068Z,17.08
2023-05-18T16:47:35.008Z,16.90
2023-05-18T16:52:34.919Z,16.85
2023-05-18T16:57:34.850Z,16.48
2023-05-18T17:02:37.881Z,16.19
2023-05-18T17:07:34.729Z,16.08
2023-05-18T17:12:34.660Z,16.08
2023-05-18T17:17:34.639Z,16.12
2023-05-18T17:22:34.526Z,16.20
2023-05-18T17:27:34.451Z,16.41
2023-05-18T17:32:34.421Z,16.19
2023-05-18T17:37:34.312Z,16.01
2023-05-18T17:42:34.273Z,15.83
2023-05-18T17:47:34.209Z,15.67
2023-05-18T17:52:34.143Z,15.58
2023-05-18T17:57:34.065Z,15.38
2023-05-18T18:02:34.027Z,15.28
2023-05-18T18:07:33.956Z,15.23
2023-05-18T18:12:33.875Z,15.06
2023-05-18T18:17:33.859Z,14.95
2023-05-18T18:22:35.688Z,14.85
2023-05-18T18:27:33.688Z,14.77
2023-05-18T18:32:33.682Z,14.60
2023-05-18T18:37:33.555Z,14.53
2023-05-18T18:42:33.490Z,14.45
2023-05-18T18:47:33.484Z,14.35
2023-05-18T18:52:33.349Z,14.29
2023-05-18T18:57:33.290Z,14.17
2023-05-18T19:02:33.221Z,14.11
2023-05-18T19:07:33.144Z,14.07
2023-05-18T19:12:33.106Z,13.95
2023-05-18T19:17:33.018Z,13.89
2023-05-18T19:22:32.955Z,13.69
2023-05-18T19:27:32.912Z,13.61
2023-05-18T19:32:32.834Z,13.58
2023-05-18T19:37:32.755Z,13.64
2023-05-18T19:42:32.689Z,13.64
2023-05-18T19:47:32.685Z,13.66
2023-05-18T19:52:32.557Z,13.71
2023-05-18T19:57:32.499Z,13.77
2023-05-18T20:02:32.458Z,13.82
2023-05-18T20:07:32.355Z,13.80
2023-05-18T20:12:32.300Z,13.76
2023-05-18T20:17:32.241Z,13.71
2023-05-18T20:22:32.160Z,13.71
2023-05-18T20:27:32.094Z,13.67
2023-05-18T20:32:32.060Z,13.58
2023-05-18T20:37:31.953Z,13.45
2023-05-18T20:42:31.917Z,13.38
2023-05-18T20:47:31.860Z,13.33
2023-05-18T20:52:31.782Z,13.30
2023-05-18T20:57:31.729Z,13.23
2023-05-18T21:02:31.717Z,13.19
2023-05-18T21:07:31.592Z,13.13
2023-05-18T21:12:31.521Z,13.09
2023-05-18T21:17:31.513Z,13.01
2023-05-18T21:22:31.406Z,12.91
2023-05-18T21:27:31.319Z,12.80
2023-05-18T21:32:31.506Z,12.70
2023-05-18T21:37:31.212Z,12.64
2023-05-18T21:42:31.150Z,12.57
2023-05-18T21:47:31.121Z,12.46
2023-05-18T21:52:31.032Z,12.36
2023-05-18T21:57:30.946Z,12.30
2023-05-18T22:02:30.958Z,12.26
2023-05-18T22:07:30.836Z,12.20
2023-05-18T22:12:30.754Z,12.17
2023-05-18T22:17:30.746Z,12.14
2023-05-18T22:22:31.061Z,12.11
2023-05-18T22:27:30.577Z,12.09
2023-05-18T22:32:30.609Z,12.08
2023-05-18T22:37:30.441Z,12.01
2023-05-18T22:42:30.363Z,12.01
2023-05-18T22:47:30.290Z,11.99
2023-05-18T22:52:30.217Z,11.96
2023-05-18T22:57:30.154Z,11.94
2023-05-18T23:02:30.129Z,11.90
2023-05-18T23:07:30.027Z,11.90
2023-05-18T23:12:29.968Z,11.88
2023-05-18T23:17:29.910Z,11.84
2023-05-18T23:22:29.837Z,11.81
2023-05-18T23:27:29.771Z,11.81
2023-05-18T23:32:29.791Z,11.81
2023-05-18T23:37:29.619Z,11.81
2023-05-18T23:42:29.565Z,11.75
2023-05-18T23:47:29.543Z,11.73
2023-05-18T23:52:29.425Z,11.68
2023-05-18T23:57:29.354Z,11.69
